Time;durP1;ratioP1;P1;durP2;ratioP2;P2;SDS_P1;SDS_P2;PMS_P1;PMS_P2;Temp;Humidity;BMP_temperature;BMP_pressure;BME280_temperature;BME280_humidity;BME280_pressure;Samples;Min_cycle;Max_cycle;Signal;HPM_P1;HPM_P2
2021/08/03 00:01:05;;;;;;;17.50;9.50;;;11.40;99.90;;;;;;4963681;28;20946;-61
2021/08/03 00:03:34;;;;;;;15.95;9.90;;;11.40;99.90;;;;;;4964159;28;20030;-65
2021/08/03 00:06:07;;;;;;;13.25;9.55;;;11.40;99.90;;;;;;4958093;28;20023;-64
2021/08/03 00:08:35;;;;;;;13.73;10.70;;;11.40;99.90;;;;;;4960224;28;20027;-64
2021/08/03 00:11:06;;;;;;;16.67;9.73;;;11.30;99.90;;;;;;4974404;28;20518;-64
2021/08/03 00:13:33;;;;;;;16.38;9.45;;;11.30;99.90;;;;;;4960136;28;20453;-64
2021/08/03 00:16:03;;;;;;;13.60;9.38;;;11.30;99.90;;;;;;4958572;28;20027;-64
2021/08/03 00:18:29;;;;;;;15.73;8.40;;;11.20;99.90;;;;;;4962518;28;20102;-65
2021/08/03 00:20:57;;;;;;;9.35;7.55;;;11.20;99.90;;;;;;4958849;28;20039;-64
2021/08/03 00:23:22;;;;;;;11.70;8.40;;;11.20;99.90;;;;;;4963581;28;20391;-64
2021/08/03 00:25:51;;;;;;;14.10;9.35;;;11.10;99.90;;;;;;4958184;28;20026;-58
2021/08/03 00:28:17;;;;;;;15.88;7.93;;;11.10;99.90;;;;;;4969748;28;20045;-64
2021/08/03 00:30:43;;;;;;;10.93;8.25;;;11.10;99.90;;;;;;4969915;28;20045;-63
2021/08/03 00:33:10;;;;;;;14.55;9.25;;;11.10;99.90;;;;;;4967129;28;20789;-58
2021/08/03 00:35:36;;;;;;;13.48;9.55;;;11.10;99.90;;;;;;4971520;28;20122;-64
2021/08/03 00:38:02;;;;;;;12.32;9.10;;;11.10;99.90;;;;;;4953845;28;20528;-64
2021/08/03 00:40:28;;;;;;;15.68;9.00;;;11.10;99.90;;;;;;4973566;28;20019;-65
2021/08/03 00:42:54;;;;;;;15.38;9.38;;;11.20;99.90;;;;;;4972035;28;20042;-65
2021/08/03 00:45:19;;;;;;;10.55;7.88;;;11.10;99.90;;;;;;4968980;28;20388;-64
2021/08/03 00:47:45;;;;;;;11.40;7.28;;;11.20;99.90;;;;;;4965670;28;20051;-64
2021/08/03 00:50:11;;;;;;;9.48;7.50;;;11.20;99.90;;;;;;4957525;28;20121;-63
2021/08/03 00:52:36;;;;;;;10.68;7.03;;;11.20;99.90;;;;;;4968501;28;21104;-64
2021/08/03 00:55:04;;;;;;;14.52;8.20;;;11.20;99.90;;;;;;4967232;28;20030;-64
2021/08/03 00:57:30;;;;;;;9.30;7.20;;;11.10;99.90;;;;;;4966727;28;20023;-63
2021/08/03 00:59:57;;;;;;;9.13;6.97;;;11.10;99.90;;;;;;4964291;28;20694;-65
2021/08/03 01:02:23;;;;;;;12.13;7.90;;;11.10;99.90;;;;;;4969559;28;20037;-65
2021/08/03 01:04:48;;;;;;;10.00;6.55;;;11.20;99.90;;;;;;4971110;28;20113;-64
2021/08/03 01:07:41;;;;;;;10.30;7.25;;;11.20;99.90;;;;;;4970950;28;20042;-65
2021/08/03 01:10:28;;;;;;;12.63;8.38;;;11.20;99.90;;;;;;4969180;28;20772;-65
2021/08/03 01:13:18;;;;;;;9.32;7.05;;;11.20;99.90;;;;;;4971543;28;20030;-64
2021/08/03 01:15:53;;;;;;;12.35;7.22;;;11.20;99.90;;;;;;4965828;28;20061;-65
2021/08/03 01:18:46;;;;;;;10.68;6.90;;;11.30;99.90;;;;;;4969294;28;20030;-63
2021/08/03 01:21:30;;;;;;;7.90;6.40;;;11.30;99.90;;;;;;4969046;28;20057;-64
2021/08/03 01:24:10;;;;;;;14.85;6.32;;;11.30;99.90;;;;;;4969844;28;20129;-65
2021/08/03 01:27:08;;;;;;;10.27;6.50;;;11.30;99.90;;;;;;4968551;28;20034;-63
2021/08/03 01:29:33;;;;;;;11.55;8.27;;;11.30;99.90;;;;;;4936542;28;20038;-64
2021/08/03 01:32:07;;;;;;;11.15;6.95;;;11.30;99.90;;;;;;4971296;28;20038;-64
2021/08/03 01:34:36;;;;;;;12.73;8.32;;;11.30;99.90;;;;;;4964589;28;20023;-64
2021/08/03 01:37:02;;;;;;;9.57;6.93;;;11.30;99.90;;;;;;4970737;28;20034;-63
2021/08/03 01:39:36;;;;;;;12.80;7.85;;;11.30;99.90;;;;;;4968286;28;20400;-65
2021/08/03 01:42:03;;;;;;;;;;;11.30;99.90;;;;;;4973737;28;20030;-65
2021/08/03 01:44:32;;;;;;;9.70;7.13;;;11.30;99.90;;;;;;4963870;28;20446;-64
2021/08/03 01:46:59;;;;;;;11.63;8.27;;;11.30;99.90;;;;;;4970996;28;20386;-64
2021/08/03 01:49:26;;;;;;;12.90;7.88;;;11.30;99.90;;;;;;4956863;28;20070;-65
2021/08/03 01:51:52;;;;;;;15.68;9.07;;;11.40;99.90;;;;;;4967683;28;20046;-64
2021/08/03 01:54:19;;;;;;;15.77;8.57;;;11.40;99.90;;;;;;4969333;28;20031;-65
2021/08/03 01:56:46;;;;;;;12.45;8.02;;;11.40;99.90;;;;;;4971922;28;20026;-65
2021/08/03 01:59:13;;;;;;;14.80;8.30;;;11.40;99.90;;;;;;4969115;28;20026;-65
2021/08/03 02:01:39;;;;;;;9.35;7.50;;;11.40;99.90;;;;;;4970169;28;20397;-65
2021/08/03 02:04:05;;;;;;;9.57;7.75;;;11.40;99.90;;;;;;4969572;28;20031;-65
2021/08/03 02:06:31;;;;;;;8.93;7.55;;;11.50;99.90;;;;;;4968935;28;20031;-64
2021/08/03 02:08:58;;;;;;;8.80;7.90;;;11.50;99.90;;;;;;4971486;28;20078;-61
2021/08/03 02:11:27;;;;;;;11.57;7.45;;;11.50;99.90;;;;;;4965554;28;20118;-64
2021/08/03 02:13:53;;;;;;;12.32;7.15;;;11.50;99.90;;;;;;4968312;28;20030;-62
2021/08/03 02:16:18;;;;;;;12.35;6.95;;;11.50;99.90;;;;;;4963213;28;20560;-64
2021/08/03 02:18:47;;;;;;;15.05;7.38;;;11.40;99.90;;;;;;4962896;28;20038;-64
2021/08/03 02:21:20;;;;;;;11.55;7.53;;;11.40;99.90;;;;;;4966993;28;20031;-65
2021/08/03 02:23:46;;;;;;;15.02;8.73;;;11.40;99.90;;;;;;4961265;28;20050;-64
2021/08/03 02:26:12;;;;;;;10.18;7.75;;;11.30;99.90;;;;;;4965983;28;20070;-65
2021/08/03 02:28:38;;;;;;;11.00;7.82;;;11.30;99.90;;;;;;4969717;28;20062;-65
2021/08/03 02:31:27;;;;;;;10.68;8.32;;;11.40;99.90;;;;;;4964019;28;20046;-64
2021/08/03 02:33:57;;;;;;;10.85;8.40;;;11.40;99.90;;;;;;4970646;28;20073;-63
2021/08/03 02:36:27;;;;;;;11.15;7.00;;;11.40;99.90;;;;;;4968380;28;20037;-64
2021/08/03 02:38:58;;;;;;;13.70;9.02;;;11.40;99.90;;;;;;4964984;28;20053;-64
2021/08/03 02:41:24;;;;;;;13.18;9.23;;;11.40;99.90;;;;;;4971749;28;20575;-64
2021/08/03 02:43:51;;;;;;;11.65;9.23;;;11.40;99.90;;;;;;4974182;28;20571;-64
2021/08/03 02:46:21;;;;;;;11.65;8.65;;;11.40;99.90;;;;;;4960600;28;20023;-64
2021/08/03 02:49:00;;;;;;;15.05;8.63;;;11.40;99.90;;;;;;4962718;28;20027;-65
2021/08/03 02:51:27;;;;;;;10.93;9.15;;;11.40;99.90;;;;;;4951197;28;20047;-65
2021/08/03 02:53:55;;;;;;;12.20;8.30;;;11.40;99.90;;;;;;4969198;28;20053;-64
2021/08/03 02:56:24;;;;;;;9.98;8.38;;;11.40;99.90;;;;;;4971372;28;20047;-63
2021/08/03 02:59:00;;;;;;;11.52;8.23;;;11.50;99.90;;;;;;4968300;28;20034;-64
2021/08/03 03:01:29;;;;;;;11.57;8.23;;;11.50;99.90;;;;;;4966921;28;20031;-65
2021/08/03 03:04:02;;;;;;;10.55;8.45;;;11.50;99.90;;;;;;4974723;28;20023;-66
2021/08/03 03:06:31;;;;;;;10.50;7.85;;;11.50;99.90;;;;;;4976318;28;20036;-63
2021/08/03 03:08:58;;;;;;;10.38;7.85;;;11.60;99.90;;;;;;4969302;28;20047;-65
2021/08/03 03:11:29;;;;;;;14.52;7.18;;;11.50;99.90;;;;;;4969386;28;20023;-64
2021/08/03 03:13:59;;;;;;;10.82;7.88;;;11.60;99.90;;;;;;4976678;28;20027;-65
2021/08/03 03:16:26;;;;;;;10.90;7.97;;;11.50;99.90;;;;;;4967941;28;20029;-64
2021/08/03 03:18:56;;;;;;;9.05;7.68;;;11.50;99.90;;;;;;4971808;28;20523;-64
2021/08/03 03:21:23;;;;;;;11.63;8.85;;;11.50;99.90;;;;;;4971126;28;20037;-64
2021/08/03 03:23:51;;;;;;;12.88;7.78;;;11.50;99.90;;;;;;4972988;28;20030;-64
2021/08/03 03:26:18;;;;;;;13.70;7.97;;;11.50;99.90;;;;;;4977135;28;20105;-64
2021/08/03 03:28:45;;;;;;;14.27;8.90;;;11.50;99.90;;;;;;4970816;28;20030;-64
2021/08/03 03:31:12;;;;;;;11.95;8.55;;;11.50;99.90;;;;;;4973430;28;20093;-64
2021/08/03 03:33:40;;;;;;;13.00;9.15;;;11.50;99.90;;;;;;4972392;28;20114;-65
2021/08/03 03:36:08;;;;;;;9.63;8.20;;;11.60;99.90;;;;;;4968755;28;20093;-64
2021/08/03 03:38:37;;;;;;;15.07;8.65;;;11.60;99.90;;;;;;4973364;28;20035;-60
2021/08/03 03:41:04;;;;;;;12.65;9.82;;;11.60;99.90;;;;;;4971091;28;20061;-64
2021/08/03 03:43:30;;;;;;;18.50;11.10;;;11.60;99.90;;;;;;4975780;28;20022;-64
2021/08/03 03:46:08;;;;;;;16.13;12.13;;;11.60;99.90;;;;;;4970851;28;20497;-64
2021/08/03 03:48:43;;;;;;;20.70;12.95;;;11.60;99.90;;;;;;4970971;28;20058;-63
2021/08/03 03:51:13;;;;;;;16.27;11.63;;;11.70;99.90;;;;;;4956596;28;20050;-64
2021/08/03 03:53:45;;;;;;;15.43;11.25;;;11.70;99.90;;;;;;4971239;28;20027;-65
2021/08/03 03:56:13;;;;;;;17.55;12.70;;;11.80;99.90;;;;;;4968998;28;20411;-63
2021/08/03 03:58:43;;;;;;;18.30;12.23;;;11.80;99.90;;;;;;4970477;28;20054;-65
2021/08/03 04:01:17;;;;;;;14.73;11.50;;;11.80;99.90;;;;;;4967749;28;20019;-63
2021/08/03 04:03:44;;;;;;;17.85;12.63;;;11.80;99.90;;;;;;4972939;28;20130;-64
2021/08/03 04:06:12;;;;;;;16.75;12.50;;;11.90;99.90;;;;;;4968666;28;20401;-64
2021/08/03 04:08:38;;;;;;;20.17;13.35;;;11.90;99.90;;;;;;4972122;28;20030;-66
2021/08/03 04:11:04;;;;;;;20.25;14.32;;;11.90;99.90;;;;;;4970127;28;20113;-65
2021/08/03 04:13:30;;;;;;;18.13;14.93;;;11.90;99.90;;;;;;4967374;28;20030;-65
2021/08/03 04:15:56;;;;;;;19.27;12.88;;;11.90;99.90;;;;;;4970545;28;20488;-65
2021/08/03 04:18:21;;;;;;;15.88;11.50;;;11.90;99.90;;;;;;4971400;28;20030;-64
2021/08/03 04:20:47;;;;;;;21.05;11.70;;;11.90;99.90;;;;;;4971541;28;20066;-65
2021/08/03 04:23:13;;;;;;;14.73;10.55;;;11.90;99.90;;;;;;4963916;28;20513;-64
2021/08/03 04:25:40;;;;;;;15.77;10.55;;;12.00;99.90;;;;;;4970588;28;20023;-64
2021/08/03 04:28:07;;;;;;;13.18;10.10;;;12.00;99.90;;;;;;4968678;28;20010;-64
2021/08/03 04:30:33;;;;;;;17.17;12.00;;;11.90;99.90;;;;;;4968126;28;20020;-59
2021/08/03 04:32:59;;;;;;;19.38;11.82;;;11.90;99.90;;;;;;4966992;28;20027;-63
2021/08/03 04:35:24;;;;;;;15.23;11.55;;;11.90;99.90;;;;;;4973727;28;20034;-65
2021/08/03 04:37:50;;;;;;;17.95;12.07;;;11.90;99.90;;;;;;4968477;28;20035;-64
2021/08/03 04:40:18;;;;;;;15.65;12.00;;;12.00;99.90;;;;;;4970763;28;20400;-64
2021/08/03 04:42:44;;;;;;;12.98;11.18;;;12.00;99.90;;;;;;4973529;28;20564;-65
2021/08/03 04:45:10;;;;;;;17.77;11.00;;;12.10;99.90;;;;;;4968131;28;20587;-65
2021/08/03 04:47:47;;;;;;;15.88;12.05;;;12.10;99.90;;;;;;4970126;28;20026;-65
2021/08/03 04:50:16;;;;;;;15.18;11.88;;;12.10;99.90;;;;;;4970982;28;20015;-64
2021/08/03 04:52:42;;;;;;;16.52;12.02;;;12.20;99.90;;;;;;4948743;28;20050;-65
2021/08/03 04:55:08;;;;;;;14.65;11.13;;;12.20;99.90;;;;;;4970160;28;20037;-64
2021/08/03 04:57:34;;;;;;;15.70;10.90;;;12.30;99.90;;;;;;4970695;28;20058;-64
2021/08/03 05:00:00;;;;;;;13.30;10.10;;;12.40;99.90;;;;;;4967548;28;20117;-64
2021/08/03 05:02:26;;;;;;;19.17;12.13;;;12.50;99.90;;;;;;4967437;28;20464;-64
2021/08/03 05:04:52;;;;;;;15.18;11.25;;;12.50;99.90;;;;;;4970965;28;20046;-64
2021/08/03 05:07:17;;;;;;;13.35;10.82;;;12.50;99.90;;;;;;4970528;28;20109;-64
2021/08/03 05:09:43;;;;;;;16.50;10.23;;;12.60;99.90;;;;;;4969612;28;20030;-65
2021/08/03 05:12:08;;;;;;;14.82;10.93;;;12.60;99.90;;;;;;4971550;28;20037;-64
2021/08/03 05:14:34;;;;;;;13.30;10.98;;;12.70;99.90;;;;;;4971759;28;20107;-59
2021/08/03 05:16:59;;;;;;;20.17;11.55;;;12.60;99.90;;;;;;4971255;28;20023;-65
2021/08/03 05:19:25;;;;;;;15.18;11.90;;;12.70;99.90;;;;;;4971491;28;20179;-64
2021/08/03 05:21:50;;;;;;;13.93;11.25;;;12.70;99.90;;;;;;4968187;28;20066;-64
2021/08/03 05:24:16;;;;;;;16.13;12.13;;;12.70;99.90;;;;;;4960330;28;20050;-63
2021/08/03 05:26:42;;;;;;;17.70;10.63;;;12.80;99.90;;;;;;4970734;28;20073;-65
2021/08/03 05:29:08;;;;;;;20.92;11.40;;;12.80;99.90;;;;;;4971766;28;20372;-65
2021/08/03 05:31:33;;;;;;;18.08;11.30;;;12.80;99.90;;;;;;4970841;28;20019;-63
2021/08/03 05:34:01;;;;;;;13.40;11.52;;;12.80;99.90;;;;;;4968500;28;20038;-64
2021/08/03 05:36:27;;;;;;;15.15;10.95;;;12.80;99.90;;;;;;4970479;28;20382;-65
2021/08/03 05:38:52;;;;;;;15.20;11.23;;;12.90;99.90;;;;;;4968463;28;20033;-64
2021/08/03 05:41:18;;;;;;;18.05;11.73;;;12.90;99.90;;;;;;4971762;28;20412;-64
2021/08/03 05:43:43;;;;;;;15.07;10.95;;;12.90;99.90;;;;;;4974558;28;20034;-64
2021/08/03 05:46:09;;;;;;;18.13;12.55;;;13.00;99.90;;;;;;4972624;28;20114;-64
2021/08/03 05:48:35;;;;;;;18.77;12.25;;;13.00;99.90;;;;;;4968499;28;20101;-61
2021/08/03 05:51:00;;;;;;;14.60;11.15;;;13.10;99.90;;;;;;4948508;28;20027;-64
2021/08/03 05:53:26;;;;;;;16.75;14.50;;;13.10;99.90;;;;;;4970920;28;20038;-63
2021/08/03 05:55:52;;;;;;;21.33;12.82;;;13.10;99.90;;;;;;4971194;28;20039;-66
2021/08/03 05:58:17;;;;;;;14.10;12.02;;;13.10;99.90;;;;;;4968998;28;20165;-65
2021/08/03 06:00:44;;;;;;;13.70;11.95;;;13.20;99.90;;;;;;4970340;28;20053;-65
2021/08/03 06:03:10;;;;;;;13.70;10.45;;;13.20;99.90;;;;;;4970879;28;20035;-64
2021/08/03 06:05:37;;;;;;;13.23;10.10;;;13.30;99.90;;;;;;4970546;28;20023;-65
2021/08/03 06:08:05;;;;;;;14.75;9.35;;;13.30;99.90;;;;;;4969592;28;20388;-65
2021/08/03 06:10:33;;;;;;;13.65;10.48;;;13.40;99.90;;;;;;4973628;28;20089;-64
2021/08/03 06:13:00;;;;;;;14.25;10.68;;;13.40;99.90;;;;;;4970420;28;20076;-65
2021/08/03 06:15:28;;;;;;;16.95;11.80;;;13.40;99.90;;;;;;4968716;28;20051;-65
2021/08/03 06:18:04;;;;;;;16.63;12.40;;;13.40;99.90;;;;;;4970053;28;20034;-64
2021/08/03 06:20:31;;;;;;;16.50;11.95;;;13.50;99.90;;;;;;4971328;28;20031;-64
2021/08/03 06:22:58;;;;;;;13.27;11.40;;;13.60;99.90;;;;;;4971067;28;20025;-65
2021/08/03 06:25:23;;;;;;;18.23;12.68;;;13.80;99.90;;;;;;4970104;28;20035;-64
2021/08/03 06:27:50;;;;;;;12.35;11.02;;;13.90;99.90;;;;;;4969415;28;20567;-65
2021/08/03 06:30:16;;;;;;;17.60;11.18;;;14.10;99.90;;;;;;4970745;28;20035;-65
2021/08/03 06:32:44;;;;;;;14.77;11.35;;;14.20;99.90;;;;;;4970333;28;20037;-65
2021/08/03 06:35:10;;;;;;;12.95;11.13;;;14.30;99.90;;;;;;4973853;28;20033;-65
2021/08/03 06:37:36;;;;;;;16.73;12.07;;;14.30;99.90;;;;;;4963661;28;20055;-65
2021/08/03 06:40:02;;;;;;;16.25;11.02;;;14.40;99.90;;;;;;4972160;28;20143;-65
2021/08/03 06:42:37;;;;;;;14.18;10.45;;;14.40;99.90;;;;;;4972227;28;20500;-65
2021/08/03 06:45:06;;;;;;;14.38;10.13;;;14.40;99.90;;;;;;4970530;28;20022;-65
2021/08/03 06:47:57;;;;;;;16.83;11.48;;;14.50;99.90;;;;;;4969194;28;20035;-65
2021/08/03 06:50:28;;;;;;;15.15;11.50;;;14.40;99.90;;;;;;4969535;28;20448;-65
2021/08/03 06:52:55;;;;;;;13.30;11.20;;;14.50;99.90;;;;;;4950774;28;20043;-64
2021/08/03 06:55:28;;;;;;;15.40;11.60;;;14.40;99.90;;;;;;4970317;28;20023;-65
2021/08/03 06:57:54;;;;;;;16.83;11.67;;;14.40;99.90;;;;;;4968229;28;20027;-64
2021/08/03 07:00:22;;;;;;;14.15;11.23;;;14.50;99.90;;;;;;4970800;28;20333;-64
2021/08/03 07:02:49;;;;;;;15.40;11.10;;;14.50;99.90;;;;;;4962957;28;20034;-64
2021/08/03 07:05:17;;;;;;;18.77;11.65;;;14.60;99.90;;;;;;4967393;28;20090;-64
2021/08/03 07:07:44;;;;;;;14.18;11.07;;;14.60;99.90;;;;;;4969590;28;20018;-64
2021/08/03 07:10:10;;;;;;;17.30;10.18;;;14.60;99.90;;;;;;4969970;28;20695;-64
2021/08/03 07:12:36;;;;;;;13.82;11.40;;;14.70;99.90;;;;;;4970212;28;20113;-62
2021/08/03 07:15:03;;;;;;;13.15;10.50;;;14.70;99.90;;;;;;4970582;28;20031;-63
2021/08/03 07:17:30;;;;;;;14.15;10.15;;;14.70;99.90;;;;;;4967802;28;20026;-63
2021/08/03 07:20:00;;;;;;;15.63;10.00;;;14.70;99.90;;;;;;4970256;28;20035;-65
2021/08/03 07:22:27;;;;;;;19.80;12.27;;;14.70;99.90;;;;;;4967764;28;20043;-64
2021/08/03 07:24:53;;;;;;;17.00;10.90;;;14.70;99.90;;;;;;4969712;28;20034;-65
2021/08/03 07:27:19;;;;;;;14.80;9.98;;;14.60;99.90;;;;;;4966069;28;20031;-66
2021/08/03 07:29:44;;;;;;;16.67;10.43;;;14.60;99.90;;;;;;4970189;28;20105;-64
2021/08/03 07:32:12;;;;;;;12.98;10.77;;;14.60;99.90;;;;;;4969490;28;20062;-65
2021/08/03 07:34:39;;;;;;;16.42;9.63;;;14.50;99.90;;;;;;4969760;28;20031;-65
2021/08/03 07:37:07;;;;;;;14.02;10.95;;;14.40;99.90;;;;;;4969209;28;20030;-65
2021/08/03 07:39:34;;;;;;;14.77;12.07;;;14.40;99.90;;;;;;4968635;28;20489;-65
2021/08/03 07:42:00;;;;;;;12.45;10.70;;;14.40;99.90;;;;;;4967491;28;20035;-65
2021/08/03 07:44:26;;;;;;;17.63;10.10;;;14.40;99.90;;;;;;4970332;28;20038;-64
2021/08/03 07:46:52;;;;;;;12.27;10.98;;;14.50;99.90;;;;;;4970061;28;20519;-65
2021/08/03 07:49:18;;;;;;;12.45;10.95;;;14.50;99.90;;;;;;4971679;28;20045;-65
2021/08/03 07:51:45;;;;;;;13.63;10.00;;;14.50;99.90;;;;;;4957016;28;20022;-65
2021/08/03 07:54:11;;;;;;;12.93;10.60;;;14.50;99.90;;;;;;4978470;28;20417;-65
2021/08/03 07:56:36;;;;;;;13.40;11.30;;;14.60;99.90;;;;;;4970029;28;20027;-58
2021/08/03 07:59:02;;;;;;;13.52;10.48;;;14.60;99.90;;;;;;4972886;28;20780;-65
2021/08/03 08:01:28;;;;;;;13.57;9.88;;;14.60;99.90;;;;;;4971839;28;20085;-66
2021/08/03 08:03:53;;;;;;;19.13;12.32;;;14.70;99.90;;;;;;4969569;28;20046;-65
2021/08/03 08:06:19;;;;;;;14.93;11.85;;;14.70;99.90;;;;;;4967536;28;20440;-65
2021/08/03 08:08:44;;;;;;;15.55;12.25;;;14.60;99.90;;;;;;4973374;28;20058;-64
2021/08/03 08:11:11;;;;;;;15.32;11.73;;;14.60;99.90;;;;;;4970226;28;20014;-66
2021/08/03 08:13:37;;;;;;;12.45;11.15;;;14.70;99.90;;;;;;4972488;28;20098;-65
2021/08/03 08:16:03;;;;;;;13.20;10.75;;;14.70;99.90;;;;;;4974027;28;20106;-65
2021/08/03 08:18:29;;;;;;;12.45;11.10;;;14.70;99.90;;;;;;4970363;28;20149;-64
2021/08/03 08:20:54;;;;;;;13.65;11.52;;;14.80;99.90;;;;;;4975895;28;20106;-65
2021/08/03 08:23:20;;;;;;;18.05;11.85;;;14.70;99.90;;;;;;4968837;28;20031;-65
2021/08/03 08:25:45;;;;;;;13.85;10.57;;;14.70;99.90;;;;;;4971755;28;20493;-65
2021/08/03 08:28:11;;;;;;;15.82;11.82;;;14.70;99.90;;;;;;4972244;28;20026;-66
2021/08/03 08:30:38;;;;;;;13.65;10.88;;;14.70;99.90;;;;;;4979189;28;20493;-61
2021/08/03 08:33:04;;;;;;;12.30;10.02;;;14.70;99.90;;;;;;4972546;28;20053;-65
2021/08/03 08:35:31;;;;;;;14.18;10.63;;;14.80;99.90;;;;;;4973715;28;20034;-66
2021/08/03 08:37:56;;;;;;;11.90;10.35;;;14.90;99.90;;;;;;4972387;28;20031;-65
2021/08/03 08:40:22;;;;;;;10.73;9.63;;;14.90;99.90;;;;;;4972055;28;20034;-66
2021/08/03 08:42:48;;;;;;;14.20;11.60;;;15.00;99.90;;;;;;4971276;28;20026;-66
2021/08/03 08:45:15;;;;;;;12.60;11.27;;;14.90;99.90;;;;;;4972419;28;20038;-66
2021/08/03 08:47:43;;;;;;;9.25;8.23;;;14.80;99.90;;;;;;4969404;28;20106;-65
2021/08/03 08:50:09;;;;;;;11.82;9.52;;;14.70;99.90;;;;;;4975232;28;20022;-65
2021/08/03 08:52:37;;;;;;;15.98;11.00;;;14.60;99.90;;;;;;4956287;28;20071;-61
2021/08/03 08:55:04;;;;;;;13.27;10.65;;;14.70;99.90;;;;;;4975104;28;20039;-64
2021/08/03 08:57:30;;;;;;;15.02;11.55;;;14.60;99.90;;;;;;4972333;28;20109;-65
2021/08/03 08:59:55;;;;;;;13.38;10.60;;;14.60;99.90;;;;;;4970299;28;20142;-64
2021/08/03 09:02:41;;;;;;;15.38;11.70;;;14.60;99.90;;;;;;4970155;28;20033;-66
2021/08/03 09:05:12;;;;;;;14.45;11.98;;;14.70;99.90;;;;;;4972640;28;20048;-66
2021/08/03 09:07:48;;;;;;;18.33;13.27;;;14.70;99.90;;;;;;4976209;28;20026;-64
2021/08/03 09:10:40;;;;;;;13.68;11.88;;;14.70;99.90;;;;;;4967805;28;20031;-65
2021/08/03 09:13:17;;;;;;;18.42;12.52;;;14.80;99.90;;;;;;4981894;28;20034;-66
2021/08/03 09:16:06;;;;;;;13.88;11.45;;;15.00;99.90;;;;;;4974040;28;20536;-64
2021/08/03 09:18:41;;;;;;;15.80;10.98;;;15.10;99.90;;;;;;4970731;28;20129;-64
2021/08/03 09:21:16;;;;;;;11.43;9.90;;;15.30;99.90;;;;;;4971444;28;20023;-64
2021/08/03 09:23:47;;;;;;;11.25;7.90;;;15.70;99.90;;;;;;4970722;28;20093;-64
2021/08/03 09:26:14;;;;;;;10.30;7.95;;;16.00;99.90;;;;;;4971371;28;20036;-65
2021/08/03 09:29:06;;;;;;;9.63;8.07;;;16.10;99.90;;;;;;4968677;28;20022;-64
2021/08/03 09:31:33;;;;;;;9.55;6.82;;;16.40;99.90;;;;;;4969746;28;20030;-64
2021/08/03 09:34:08;;;;;;;8.65;6.68;;;16.40;99.90;;;;;;4971574;28;20045;-64
2021/08/03 09:37:03;;;;;;;10.88;8.20;;;16.60;99.90;;;;;;4952943;28;20030;-67
2021/08/03 09:39:41;;;;;;;9.68;7.50;;;16.80;99.90;;;;;;4955939;28;20045;-64
2021/08/03 09:42:10;;;;;;;9.07;5.95;;;16.90;99.90;;;;;;4970256;28;20023;-65
2021/08/03 09:44:42;;;;;;;7.55;6.25;;;17.10;99.90;;;;;;4977836;28;20431;-64
2021/08/03 09:47:09;;;;;;;6.05;5.45;;;17.30;99.90;;;;;;4970361;28;20033;-65
2021/08/03 09:49:35;;;;;;;6.22;5.18;;;17.50;99.90;;;;;;4970023;28;20492;-64
2021/08/03 09:52:09;;;;;;;7.95;5.15;;;17.50;99.90;;;;;;4974626;28;20030;-64
2021/08/03 09:54:35;;;;;;;8.30;5.80;;;17.50;99.90;;;;;;4972883;28;20041;-64
2021/08/03 09:57:17;;;;;;;10.05;6.13;;;17.30;99.90;;;;;;4977241;28;20428;-64
2021/08/03 09:59:43;;;;;;;8.95;5.53;;;17.60;99.90;;;;;;4971303;28;20026;-65
2021/08/03 10:02:15;;;;;;;9.95;5.93;;;17.60;99.90;;;;;;4970141;28;20049;-64
2021/08/03 10:04:43;;;;;;;9.27;6.32;;;17.60;99.90;;;;;;4970707;28;20504;-64
2021/08/03 10:07:09;;;;;;;6.72;5.10;;;17.80;99.90;;;;;;4970492;28;20031;-65
2021/08/03 10:09:35;;;;;;;5.97;5.05;;;17.70;99.90;;;;;;4970214;28;20019;-66
2021/08/03 10:12:01;;;;;;;8.60;5.50;;;17.80;99.90;;;;;;4969760;28;20097;-64
2021/08/03 10:14:26;;;;;;;8.45;4.95;;;17.90;99.90;;;;;;4970729;28;20031;-66
2021/08/03 10:16:53;;;;;;;8.48;5.63;;;17.90;99.90;;;;;;4970016;28;20043;-64
2021/08/03 10:19:33;;;;;;;7.40;5.93;;;17.80;99.90;;;;;;4969491;28;20059;-64
2021/08/03 10:22:19;;;;;;;8.35;6.57;;;17.80;99.90;;;;;;4972800;28;20026;-65
2021/08/03 10:25:06;;;;;;;9.35;6.47;;;17.80;99.90;;;;;;4970524;28;20030;-64
2021/08/03 10:27:44;;;;;;;18.30;7.20;;;18.00;99.90;;;;;;4969890;28;20062;-65
2021/08/03 10:30:28;;;;;;;9.73;5.88;;;18.00;99.90;;;;;;4966208;28;20027;-65
2021/08/03 10:32:55;;;;;;;9.70;6.32;;;17.90;99.90;;;;;;4968237;28;20031;-66
2021/08/03 10:35:47;;;;;;;7.38;5.95;;;17.90;99.90;;;;;;4974241;28;20070;-65
2021/08/03 10:38:15;;;;;;;10.23;6.90;;;17.80;99.90;;;;;;4947087;28;20086;-65
2021/08/03 10:40:43;;;;;;;9.43;6.22;;;17.90;99.90;;;;;;4970398;28;20027;-65
2021/08/03 10:43:19;;;;;;;6.47;5.22;;;18.30;99.90;;;;;;4970375;28;20654;-65
2021/08/03 10:45:46;;;;;;;8.30;5.88;;;18.60;99.90;;;;;;4965986;28;20027;-65
2021/08/03 10:48:36;;;;;;;10.57;5.70;;;18.50;99.90;;;;;;4969964;28;20027;-65
2021/08/03 10:51:17;;;;;;;6.22;5.07;;;18.50;99.90;;;;;;4970014;28;20086;-65
2021/08/03 10:54:02;;;;;;;7.88;4.93;;;18.70;99.90;;;;;;4968630;28;20027;-65
2021/08/03 10:56:29;;;;;;;5.68;4.47;;;18.70;99.90;;;;;;4969302;28;20089;-65
2021/08/03 10:59:34;;;;;;;5.68;4.43;;;18.90;99.90;;;;;;4970294;28;20030;-64
2021/08/03 11:02:08;;;;;;;5.20;4.57;;;18.90;99.90;;;;;;4960537;28;20122;-65
2021/08/03 11:04:40;;;;;;;5.65;4.47;;;19.00;99.90;;;;;;4970291;28;20027;-65
2021/08/03 11:07:24;;;;;;;5.80;3.67;;;19.20;99.90;;;;;;4963683;28;20035;-66
2021/08/03 11:09:54;;;;;;;3.88;3.13;;;19.30;99.90;;;;;;4964835;28;20035;-65
2021/08/03 11:12:52;;;;;;;5.88;4.00;;;19.40;99.90;;;;;;4977173;28;20050;-66
2021/08/03 11:15:21;;;;;;;4.55;3.67;;;19.50;99.90;;;;;;4956273;28;20050;-66
2021/08/03 11:18:01;;;;;;;4.28;3.20;;;19.50;99.90;;;;;;4968723;28;20026;-63
2021/08/03 11:20:36;;;;;;;3.47;2.10;;;19.90;99.90;;;;;;4967882;28;20062;-64
2021/08/03 11:23:13;;;;;;;3.22;2.60;;;20.40;99.90;;;;;;4966611;28;20583;-65
2021/08/03 11:25:40;;;;;;;4.53;2.35;;;20.30;99.90;;;;;;4972479;28;20579;-66
2021/08/03 11:28:10;;;;;;;4.22;2.67;;;20.60;99.90;;;;;;4973761;28;20353;-65
2021/08/03 11:30:40;;;;;;;5.18;2.65;;;20.80;99.90;;;;;;4987904;28;20027;-66
2021/08/03 11:33:06;;;;;;;2.30;1.83;;;20.80;99.90;;;;;;4970381;28;20114;-65
2021/08/03 11:35:33;;;;;;;2.70;1.67;;;21.00;99.90;;;;;;4973428;28;20026;-66
2021/08/03 11:38:03;;;;;;;3.25;1.92;;;20.90;99.90;;;;;;4956397;28;20520;-64
2021/08/03 11:40:28;;;;;;;4.43;1.80;;;20.80;99.90;;;;;;4973225;28;20050;-65
2021/08/03 11:42:57;;;;;;;2.72;1.67;;;21.10;99.90;;;;;;4973477;28;20034;-65
2021/08/03 11:45:23;;;;;;;6.68;2.78;;;21.30;99.90;;;;;;4973525;28;20105;-65
2021/08/03 11:47:54;;;;;;;2.50;1.80;;;21.70;99.90;;;;;;4972762;28;20027;-66
2021/08/03 11:50:29;;;;;;;1.95;1.40;;;21.70;99.90;;;;;;4973031;28;20452;-66
2021/08/03 11:53:08;;;;;;;2.75;1.40;;;21.10;99.90;;;;;;4965086;28;20035;-66
2021/08/03 11:55:35;;;;;;;1.42;1.20;;;21.20;99.90;;;;;;4973261;28;20038;-66
2021/08/03 11:58:01;;;;;;;2.08;1.50;;;21.20;99.90;;;;;;4973218;28;20037;-66
2021/08/03 12:00:26;;;;;;;1.85;1.40;;;20.90;99.90;;;;;;4972842;28;20113;-65
2021/08/03 12:02:54;;;;;;;3.28;1.63;;;21.00;99.90;;;;;;4973135;28;20669;-65
2021/08/03 12:05:24;;;;;;;1.60;1.38;;;20.90;99.90;;;;;;4973222;28;20062;-64
2021/08/03 12:07:53;;;;;;;1.83;1.23;;;20.80;99.90;;;;;;4971871;28;20031;-64
2021/08/03 12:10:23;;;;;;;2.88;1.20;;;20.60;99.90;;;;;;4973041;28;20027;-65
2021/08/03 12:12:48;;;;;;;1.40;1.30;;;20.70;99.90;;;;;;4972555;28;20100;-65
2021/08/03 12:15:17;;;;;;;2.67;1.35;;;20.60;99.90;;;;;;4973151;28;20042;-64
2021/08/03 12:17:43;;;;;;;2.85;1.90;;;20.50;99.90;;;;;;4972032;28;20030;-65
2021/08/03 12:20:27;;;;;;;2.42;1.30;;;20.70;99.90;;;;;;4971441;28;20062;-65
2021/08/03 12:22:54;;;;;;;2.80;1.40;;;21.10;99.90;;;;;;4969355;28;20487;-65
2021/08/03 12:25:20;;;;;;;4.20;1.95;;;21.20;99.90;;;;;;4972940;28;20027;-65
2021/08/03 12:27:48;;;;;;;2.28;1.75;;;21.60;99.90;;;;;;4969920;28;20161;-65
2021/08/03 12:30:37;;;;;;;1.85;1.40;;;21.60;99.90;;;;;;4972075;28;20026;-64
2021/08/03 12:33:05;;;;;;;1.80;1.52;;;21.50;99.90;;;;;;4966309;28;20508;-65
2021/08/03 12:35:31;;;;;;;1.65;1.33;;;21.50;99.90;;;;;;4971647;28;20031;-65
2021/08/03 12:38:18;;;;;;;2.42;1.52;;;21.40;99.90;;;;;;4955721;28;20579;-65
2021/08/03 12:40:44;;;;;;;2.35;1.40;;;21.50;99.90;;;;;;4972119;28;20030;-65
2021/08/03 12:43:10;;;;;;;1.77;1.45;;;21.50;99.90;;;;;;4972401;28;20031;-64
2021/08/03 12:45:38;;;;;;;1.63;1.10;;;21.70;99.90;;;;;;4972344;28;20397;-66
2021/08/03 12:48:06;;;;;;;1.60;1.30;;;21.90;99.90;;;;;;4972135;28;20084;-65